createdAt,value
2019-01-16T00:00:18.925Z,-2.87
2019-01-16T00:01:41.799Z,-2.94
2019-01-16T00:02:46.708Z,-2.96
2019-01-16T00:03:57.595Z,-2.97
2019-01-16T00:05:05.226Z,-2.95
2019-01-16T00:06:16.107Z,-2.93
2019-01-16T00:07:32.836Z,-2.91
2019-01-16T00:08:46.495Z,-2.92
2019-01-16T00:10:00.597Z,-2.97
2019-01-16T00:11:20.292Z,-3.00
2019-01-16T00:12:37.506Z,-2.89
2019-01-16T00:13:42.517Z,-2.82
2019-01-16T00:14:50.174Z,-2.80
2019-01-16T00:15:55.089Z,-2.84
2019-01-16T00:17:06.276Z,-2.97
2019-01-16T00:18:17.284Z,-3.01
2019-01-16T00:19:20.625Z,-3.05
2019-01-16T00:20:31.533Z,-3.09
2019-01-16T00:21:42.088Z,-3.11
2019-01-16T00:22:47.012Z,-3.09
2019-01-16T00:23:57.941Z,-3.12
2019-01-16T00:25:08.604Z,-3.14
2019-01-16T00:26:25.728Z,-3.18
2019-01-16T00:27:45.341Z,-3.18
2019-01-16T00:28:50.264Z,-3.12
2019-01-16T00:30:01.094Z,-3.12
2019-01-16T00:31:21.094Z,-3.22
2019-01-16T00:32:38.057Z,-3.22
2019-01-16T00:33:48.455Z,-3.19
2019-01-16T00:34:56.400Z,-3.22
2019-01-16T00:36:10.000Z,-3.29
2019-01-16T00:37:17.452Z,-3.24
2019-01-16T00:38:27.864Z,-3.29
2019-01-16T00:39:50.939Z,-3.23
2019-01-16T00:41:04.773Z,-3.24
2019-01-16T00:42:15.660Z,-3.15
2019-01-16T00:43:23.267Z,-3.02
2019-01-16T00:44:44.287Z,-3.03
2019-01-16T00:45:54.907Z,-3.07
2019-01-16T00:46:59.816Z,-3.03
2019-01-16T00:48:04.816Z,-3.15
2019-01-16T00:49:15.530Z,-3.20
2019-01-16T00:50:23.147Z,-3.17
2019-01-16T00:51:30.542Z,-3.19
2019-01-16T00:52:35.464Z,-3.20
2019-01-16T00:53:40.386Z,-3.09
2019-01-16T00:54:50.838Z,-3.10
2019-01-16T00:56:01.768Z,-3.09
2019-01-16T00:57:18.573Z,-3.12
2019-01-16T00:58:26.480Z,-3.09
2019-01-16T00:59:43.476Z,-3.04
2019-01-16T01:01:01.537Z,-3.09
2019-01-16T01:02:06.549Z,-3.16
2019-01-16T01:03:11.469Z,-3.11
2019-01-16T01:04:32.694Z,-3.09
2019-01-16T01:05:37.630Z,-3.12
2019-01-16T01:06:59.002Z,-3.17
2019-01-16T01:08:15.617Z,-3.22
2019-01-16T01:09:23.442Z,-3.25
2019-01-16T01:10:28.377Z,-3.28
2019-01-16T01:11:51.412Z,-3.27
2019-01-16T01:13:14.200Z,-3.25
2019-01-16T01:14:19.129Z,-3.20
2019-01-16T01:15:29.527Z,-3.13
2019-01-16T01:16:37.370Z,-3.10
2019-01-16T01:17:42.302Z,-3.05
2019-01-16T01:18:55.820Z,-3.11
2019-01-16T01:20:00.747Z,-3.10
2019-01-16T01:21:21.601Z,-3.17
2019-01-16T01:22:26.545Z,-3.24
2019-01-16T01:23:31.465Z,-3.18
2019-01-16T01:24:52.780Z,-3.17
2019-01-16T01:25:57.718Z,-3.15
2019-01-16T01:27:18.921Z,-3.18
2019-01-16T01:28:32.533Z,-3.16
2019-01-16T01:29:42.959Z,-3.19
2019-01-16T01:30:50.331Z,-3.14
2019-01-16T01:31:58.021Z,-3.17
2019-01-16T01:33:03.309Z,-3.13
2019-01-16T01:34:08.605Z,-3.15
2019-01-16T01:35:13.533Z,-3.18
2019-01-16T01:36:18.499Z,-3.18
2019-01-16T01:37:32.434Z,-3.24
2019-01-16T01:38:49.552Z,-3.29
2019-01-16T01:39:57.195Z,-3.33
2019-01-16T01:41:10.807Z,-3.31
2019-01-16T01:42:27.870Z,-3.27
2019-01-16T01:43:38.820Z,-3.22
2019-01-16T01:44:59.722Z,-3.16
2019-01-16T01:46:13.564Z,-3.17
2019-01-16T01:47:18.827Z,-3.19
2019-01-16T01:48:23.777Z,-3.18
2019-01-16T01:49:34.375Z,-3.06
2019-01-16T01:50:42.536Z,-3.02
2019-01-16T01:51:47.462Z,-3.03
2019-01-16T01:53:01.341Z,-3.06
2019-01-16T01:54:12.238Z,-3.01
2019-01-16T01:55:17.166Z,-2.98
2019-01-16T01:56:22.105Z,-3.05
2019-01-16T01:57:29.833Z,-3.02
2019-01-16T01:58:40.639Z,-2.97
2019-01-16T01:59:45.604Z,-2.96
2019-01-16T02:00:56.085Z,-2.96
2019-01-16T02:02:03.841Z,-3.01
2019-01-16T02:03:11.586Z,-2.96
2019-01-16T02:04:16.506Z,-3.03
2019-01-16T02:05:21.493Z,-3.16
2019-01-16T02:06:35.539Z,-3.22
2019-01-16T02:07:56.750Z,-3.30
2019-01-16T02:09:10.395Z,-3.33
2019-01-16T02:10:33.467Z,-3.31
2019-01-16T02:11:43.875Z,-3.34
2019-01-16T02:13:01.190Z,-3.32
2019-01-16T02:14:06.727Z,-3.35
2019-01-16T02:15:13.394Z,-3.34
2019-01-16T02:16:18.353Z,-3.34
2019-01-16T02:17:26.151Z,-3.34
2019-01-16T02:18:31.064Z,-3.37
2019-01-16T02:19:36.348Z,-3.34
2019-01-16T02:20:41.283Z,-3.35
2019-01-16T02:22:02.360Z,-3.30
2019-01-16T02:23:07.280Z,-3.33
2019-01-16T02:24:28.754Z,-3.34
2019-01-16T02:25:36.695Z,-3.30
2019-01-16T02:26:47.306Z,-3.21
2019-01-16T02:27:52.268Z,-3.12
2019-01-16T02:29:12.515Z,-3.05
2019-01-16T02:30:17.790Z,-3.02
2019-01-16T02:31:22.714Z,-3.11
2019-01-16T02:32:44.035Z,-3.13
2019-01-16T02:34:01.228Z,-3.19
2019-01-16T02:35:21.430Z,-3.10
2019-01-16T02:36:32.112Z,-3.12
2019-01-16T02:37:37.327Z,-3.22
2019-01-16T02:38:44.953Z,-3.23
2019-01-16T02:39:49.934Z,-3.28
2019-01-16T02:41:13.028Z,-3.36
2019-01-16T02:42:20.418Z,-3.38
2019-01-16T02:43:31.260Z,-3.34
2019-01-16T02:44:46.109Z,-3.29
2019-01-16T02:45:56.941Z,-3.27
2019-01-16T02:47:02.272Z,-3.27
2019-01-16T02:48:07.200Z,-3.31
2019-01-16T02:49:28.127Z,-3.40
2019-01-16T02:50:33.059Z,-3.49
2019-01-16T02:51:40.494Z,-3.42
2019-01-16T02:52:47.989Z,-3.37
2019-01-16T02:54:01.871Z,-3.33
2019-01-16T02:55:13.795Z,-3.28
2019-01-16T02:56:21.640Z,-3.33
2019-01-16T02:57:26.606Z,-3.26
2019-01-16T02:58:31.543Z,-3.36
2019-01-16T02:59:42.413Z,-3.46
2019-01-16T03:01:05.287Z,-3.39
2019-01-16T03:02:22.282Z,-3.34
2019-01-16T03:03:29.879Z,-3.28
2019-01-16T03:04:34.881Z,-3.37
2019-01-16T03:05:39.797Z,-3.44
2019-01-16T03:06:56.596Z,-3.50
2019-01-16T03:08:04.289Z,-3.48
2019-01-16T03:09:12.510Z,-3.36
2019-01-16T03:10:26.535Z,-3.23
2019-01-16T03:11:40.795Z,-3.23
2019-01-16T03:12:45.741Z,-3.18
2019-01-16T03:13:59.326Z,-3.18
2019-01-16T03:15:13.301Z,-3.21
2019-01-16T03:16:21.214Z,-3.29
2019-01-16T03:17:28.629Z,-3.34
2019-01-16T03:18:39.286Z,-3.40
2019-01-16T03:20:02.425Z,-3.35
2019-01-16T03:21:07.391Z,-3.34
2019-01-16T03:22:12.313Z,-3.34
2019-01-16T03:23:23.225Z,-3.41
2019-01-16T03:24:28.160Z,-3.43
2019-01-16T03:25:33.085Z,-3.46
2019-01-16T03:26:38.050Z,-3.46
2019-01-16T03:27:55.075Z,-3.44
2019-01-16T03:29:12.276Z,-3.40
2019-01-16T03:30:32.209Z,-3.44
2019-01-16T03:31:43.105Z,-3.44
2019-01-16T03:32:59.677Z,-3.47
2019-01-16T03:34:13.709Z,-3.49
2019-01-16T03:35:34.995Z,-3.57
2019-01-16T03:36:42.735Z,-3.53
2019-01-16T03:37:59.486Z,-3.63
2019-01-16T03:39:04.472Z,-3.66
2019-01-16T03:40:11.995Z,-3.68
2019-01-16T03:41:29.064Z,-3.72
2019-01-16T03:42:33.999Z,-3.68
2019-01-16T03:43:38.939Z,-3.61
2019-01-16T03:44:44.353Z,-3.55
2019-01-16T03:46:07.344Z,-3.62
2019-01-16T03:47:15.573Z,-3.71
2019-01-16T03:48:20.491Z,-3.88
2019-01-16T03:49:25.412Z,-4.01
2019-01-16T03:50:42.044Z,-4.11
2019-01-16T03:51:47.023Z,-4.14
2019-01-16T03:52:51.948Z,-4.19
2019-01-16T03:54:13.234Z,-4.25
2019-01-16T03:55:20.850Z,-4.30
2019-01-16T03:56:41.922Z,-4.16
2019-01-16T03:57:49.792Z,-4.11
2019-01-16T03:59:10.900Z,-4.05
2019-01-16T04:00:21.661Z,-4.04
2019-01-16T04:01:35.277Z,-3.99
2019-01-16T04:02:40.288Z,-4.00
2019-01-16T04:03:53.923Z,-4.11
2019-01-16T04:05:01.792Z,-4.16
2019-01-16T04:06:15.744Z,-4.28
2019-01-16T04:07:20.668Z,-4.31
2019-01-16T04:08:28.508Z,-4.37
2019-01-16T04:09:48.668Z,-4.42
2019-01-16T04:10:56.351Z,-4.48
2019-01-16T04:12:01.281Z,-4.55
2019-01-16T04:13:06.242Z,-4.58
2019-01-16T04:14:27.492Z,-4.51
2019-01-16T04:15:32.453Z,-4.46
2019-01-16T04:16:39.848Z,-4.55
2019-01-16T04:18:01.161Z,-4.56
2019-01-16T04:19:21.838Z,-4.52
2019-01-16T04:20:26.995Z,-4.55
2019-01-16T04:21:43.923Z,-4.56
2019-01-16T04:22:54.814Z,-4.53
2019-01-16T04:24:05.991Z,-4.52
2019-01-16T04:25:13.506Z,-4.52
2019-01-16T04:26:27.154Z,-4.48
2019-01-16T04:27:44.183Z,-4.47
2019-01-16T04:29:01.025Z,-4.47
2019-01-16T04:30:08.803Z,-4.47
2019-01-16T04:31:13.723Z,-4.52
2019-01-16T04:32:18.655Z,-4.56
2019-01-16T04:33:23.586Z,-4.53
2019-01-16T04:34:45.090Z,-4.57
2019-01-16T04:35:50.018Z,-4.53
2019-01-16T04:37:00.888Z,-4.48
2019-01-16T04:38:14.565Z,-4.52
2019-01-16T04:39:28.470Z,-4.55
2019-01-16T04:40:33.432Z,-4.66
2019-01-16T04:41:50.435Z,-4.66
2019-01-16T04:42:58.288Z,-4.68
2019-01-16T04:44:06.002Z,-4.74
2019-01-16T04:45:16.670Z,-4.68
2019-01-16T04:46:37.760Z,-4.65
2019-01-16T04:47:42.683Z,-4.69
2019-01-16T04:48:53.453Z,-4.70
2019-01-16T04:50:16.256Z,-4.71
2019-01-16T04:51:24.062Z,-4.63
2019-01-16T04:52:31.807Z,-4.58
2019-01-16T04:53:36.744Z,-4.58
2019-01-16T04:54:47.407Z,-4.62
2019-01-16T04:55:52.691Z,-4.63
2019-01-16T04:57:06.738Z,-4.56
2019-01-16T04:58:14.413Z,-4.53
2019-01-16T04:59:35.281Z,-4.52
2019-01-16T05:00:49.050Z,-4.60
2019-01-16T05:02:12.044Z,-4.70
2019-01-16T05:03:31.787Z,-4.78
2019-01-16T05:04:48.768Z,-4.87
2019-01-16T05:05:53.706Z,-4.95
2019-01-16T05:06:58.648Z,-4.98
2019-01-16T05:08:12.321Z,-4.98
2019-01-16T05:09:26.643Z,-4.97
2019-01-16T05:10:43.923Z,-5.01
2019-01-16T05:11:54.766Z,-5.03
2019-01-16T05:13:02.789Z,-5.06
2019-01-16T05:14:13.244Z,-5.01
2019-01-16T05:15:23.956Z,-5.11
2019-01-16T05:16:34.573Z,-5.10
2019-01-16T05:17:42.420Z,-5.12
2019-01-16T05:19:03.392Z,-5.08
2019-01-16T05:20:10.068Z,-5.11
2019-01-16T05:21:30.887Z,-5.16
2019-01-16T05:22:38.758Z,-5.24
2019-01-16T05:23:43.691Z,-5.36
2019-01-16T05:24:51.101Z,-5.43
2019-01-16T05:26:01.877Z,-5.35
2019-01-16T05:27:15.758Z,-5.37
2019-01-16T05:28:37.522Z,-5.37
2019-01-16T05:30:00.564Z,-5.39
2019-01-16T05:31:21.920Z,-5.38
2019-01-16T05:32:44.939Z,-5.41
2019-01-16T05:33:52.897Z,-5.43
2019-01-16T05:34:57.861Z,-5.45
2019-01-16T05:36:08.264Z,-5.43
2019-01-16T05:37:15.934Z,-5.45
2019-01-16T05:38:36.197Z,-5.40
2019-01-16T05:39:57.382Z,-5.44
2019-01-16T05:41:17.497Z,-5.49
2019-01-16T05:42:34.427Z,-5.51
2019-01-16T05:43:48.394Z,-5.50
2019-01-16T05:44:53.413Z,-5.46
2019-01-16T05:46:00.966Z,-5.46
2019-01-16T05:47:17.985Z,-5.46
2019-01-16T05:48:31.884Z,-5.45
2019-01-16T05:49:46.644Z,-5.52
2019-01-16T05:51:01.099Z,-5.53
2019-01-16T05:52:21.898Z,-5.59
2019-01-16T05:53:33.081Z,-5.57
2019-01-16T05:54:54.593Z,-5.48
2019-01-16T05:56:05.513Z,-5.50
2019-01-16T05:57:26.480Z,-5.52
2019-01-16T05:58:46.735Z,-5.51
2019-01-16T05:59:51.663Z,-5.49
2019-01-16T06:00:56.990Z,-5.55
2019-01-16T06:02:10.642Z,-5.49
2019-01-16T06:03:24.258Z,-5.43
2019-01-16T06:04:29.197Z,-5.50
2019-01-16T06:05:39.852Z,-5.55
2019-01-16T06:07:01.357Z,-5.55
2019-01-16T06:08:08.868Z,-5.55
2019-01-16T06:09:25.791Z,-5.53
2019-01-16T06:10:36.584Z,-5.60
2019-01-16T06:11:56.592Z,-5.67
2019-01-16T06:13:19.325Z,-5.75
2019-01-16T06:14:26.874Z,-5.75
2019-01-16T06:15:31.797Z,-5.73
2019-01-16T06:16:52.645Z,-5.75
2019-01-16T06:17:57.596Z,-5.74
2019-01-16T06:19:08.022Z,-5.77
2019-01-16T06:20:15.886Z,-5.76
2019-01-16T06:21:36.902Z,-5.77
2019-01-16T06:23:00.018Z,-5.74
2019-01-16T06:24:04.935Z,-5.81
2019-01-16T06:25:15.836Z,-5.73
2019-01-16T06:26:26.539Z,-5.74
2019-01-16T06:27:32.471Z,-5.73
2019-01-16T06:28:53.835Z,-5.73
2019-01-16T06:30:01.613Z,-5.71
2019-01-16T06:31:06.580Z,-5.69
2019-01-16T06:32:11.521Z,-5.64
2019-01-16T06:33:16.449Z,-5.55
2019-01-16T06:34:30.253Z,-5.49
2019-01-16T06:35:40.816Z,-5.48
2019-01-16T06:36:45.787Z,-5.48
2019-01-16T06:37:56.419Z,-5.65
2019-01-16T06:39:17.646Z,-5.63
2019-01-16T06:40:28.358Z,-5.52
2019-01-16T06:41:49.685Z,-5.60
2019-01-16T06:42:54.653Z,-5.67
2019-01-16T06:44:02.173Z,-5.69
2019-01-16T06:45:14.059Z,-5.75
2019-01-16T06:46:27.910Z,-5.69
2019-01-16T06:47:36.001Z,-5.59
2019-01-16T06:48:40.964Z,-5.43
2019-01-16T06:49:51.847Z,-5.30
2019-01-16T06:50:56.921Z,-5.18
2019-01-16T06:52:01.864Z,-5.10
2019-01-16T06:53:22.992Z,-5.07
2019-01-16T06:54:44.135Z,-4.97
2019-01-16T06:55:55.082Z,-4.97
2019-01-16T06:57:05.855Z,-4.97
2019-01-16T06:58:26.127Z,-4.96
2019-01-16T06:59:42.981Z,-4.90
2019-01-16T07:00:59.891Z,-5.01
2019-01-16T07:02:19.759Z,-5.02
2019-01-16T07:03:36.454Z,-4.91
2019-01-16T07:04:41.386Z,-4.93
2019-01-16T07:06:02.178Z,-5.05
2019-01-16T07:07:25.352Z,-5.20
2019-01-16T07:08:30.724Z,-5.36
2019-01-16T07:09:53.558Z,-5.35
2019-01-16T07:11:01.268Z,-5.41
2019-01-16T07:12:22.114Z,-5.43
2019-01-16T07:13:43.449Z,-5.42
2019-01-16T07:14:48.386Z,-5.37
2019-01-16T07:15:53.319Z,-5.31
2019-01-16T07:17:10.055Z,-5.39
2019-01-16T07:18:20.991Z,-5.45
2019-01-16T07:19:44.227Z,-5.45
2019-01-16T07:21:05.626Z,-5.28
2019-01-16T07:22:25.784Z,-5.15
2019-01-16T07:23:33.348Z,-5.10
2019-01-16T07:24:38.347Z,-5.17
2019-01-16T07:25:59.310Z,-5.17
2019-01-16T07:27:20.567Z,-5.10
2019-01-16T07:28:34.535Z,-5.06
2019-01-16T07:29:51.497Z,-5.04
2019-01-16T07:31:12.484Z,-5.01
2019-01-16T07:32:23.717Z,-4.95
2019-01-16T07:33:28.643Z,-4.94
2019-01-16T07:34:36.298Z,-4.93
2019-01-16T07:35:41.228Z,-4.83
2019-01-16T07:36:46.288Z,-4.77
2019-01-16T07:38:06.408Z,-4.79
2019-01-16T07:39:14.038Z,-4.72
2019-01-16T07:40:27.781Z,-4.54
2019-01-16T07:41:38.318Z,-4.53
2019-01-16T07:42:47.031Z,-4.48
2019-01-16T07:43:50.027Z,-4.31
2019-01-16T07:44:54.956Z,-4.26
2019-01-16T07:46:02.635Z,-4.13
2019-01-16T07:47:07.562Z,-3.94
2019-01-16T07:48:15.365Z,-3.67
2019-01-16T07:49:20.689Z,-3.51
2019-01-16T07:50:31.084Z,-3.26
2019-01-16T07:51:51.252Z,-2.89
2019-01-16T07:53:07.822Z,-2.46
2019-01-16T07:54:21.517Z,-1.94
2019-01-16T07:55:38.180Z,-1.67
2019-01-16T07:56:43.109Z,-1.48
2019-01-16T07:57:48.359Z,-1.52
2019-01-16T07:58:59.058Z,-1.55
2019-01-16T08:00:18.907Z,-1.55
2019-01-16T08:01:23.919Z,-1.34
2019-01-16T08:02:35.078Z,-1.08
2019-01-16T08:03:55.972Z,-1.00
2019-01-16T08:05:10.318Z,-0.86
2019-01-16T08:06:15.365Z,-0.81
2019-01-16T08:07:23.257Z,-0.88
2019-01-16T08:08:36.989Z,-0.81
2019-01-16T08:09:44.525Z,-0.81
2019-01-16T08:11:01.303Z,-0.74
2019-01-16T08:12:12.332Z,-0.66
2019-01-16T08:13:33.685Z,-0.27
2019-01-16T08:14:44.631Z,0.00
2019-01-16T08:15:55.653Z,0.20
2019-01-16T08:17:00.653Z,0.36
2019-01-16T08:18:20.470Z,0.57
2019-01-16T08:19:31.491Z,0.78
2019-01-16T08:20:52.709Z,1.07
2019-01-16T08:21:57.631Z,1.15
2019-01-16T08:23:02.556Z,1.42
2019-01-16T08:24:13.344Z,1.38
2019-01-16T08:25:27.695Z,1.44
2019-01-16T08:26:48.775Z,1.33
2019-01-16T08:27:56.465Z,1.45
2019-01-16T08:29:04.216Z,1.52
2019-01-16T08:30:17.517Z,1.74
2019-01-16T08:31:22.934Z,1.79
2019-01-16T08:32:30.666Z,1.83
2019-01-16T08:33:38.202Z,1.78
2019-01-16T08:35:01.432Z,2.04
2019-01-16T08:36:25.067Z,2.21
2019-01-16T08:37:45.021Z,2.44
2019-01-16T08:38:58.932Z,2.63
2019-01-16T08:40:18.994Z,2.63
2019-01-16T08:41:23.991Z,3.01
2019-01-16T08:42:28.983Z,3.28
2019-01-16T08:43:42.556Z,3.49
2019-01-16T08:45:05.460Z,3.50
2019-01-16T08:46:13.025Z,3.77
2019-01-16T08:47:23.970Z,4.12
2019-01-16T08:48:34.620Z,4.22
2019-01-16T08:49:45.623Z,4.36
2019-01-16T08:51:06.981Z,4.46
2019-01-16T08:52:14.402Z,4.44
2019-01-16T08:53:35.690Z,4.46
2019-01-16T08:54:43.308Z,4.61
2019-01-16T08:56:04.453Z,4.89
2019-01-16T08:57:09.407Z,5.16
2019-01-16T08:58:20.329Z,5.53
2019-01-16T08:59:31.034Z,5.69
2019-01-16T09:00:36.012Z,5.85
2019-01-16T09:01:43.457Z,6.04
2019-01-16T09:02:51.373Z,6.42
2019-01-16T09:04:05.248Z,6.49
2019-01-16T09:05:18.198Z,6.63
2019-01-16T09:06:25.814Z,6.65
2019-01-16T09:07:36.435Z,6.58
2019-01-16T09:08:43.842Z,6.37
2019-01-16T09:09:54.453Z,6.60
2019-01-16T09:10:59.385Z,6.90
2019-01-16T09:12:13.204Z,7.22
2019-01-16T09:13:20.895Z,7.22
2019-01-16T09:14:28.541Z,6.80
2019-01-16T09:15:34.951Z,6.84
2019-01-16T09:16:46.252Z,7.26
2019-01-16T09:17:51.223Z,7.39
2019-01-16T09:19:12.334Z,7.19
2019-01-16T09:20:26.223Z,7.22
2019-01-16T09:21:31.169Z,7.31
2019-01-16T09:22:48.251Z,7.28
2019-01-16T09:23:53.582Z,7.31
2019-01-16T09:25:10.385Z,7.00
2019-01-16T09:26:20.951Z,7.43
2019-01-16T09:27:25.863Z,7.90
2019-01-16T09:28:42.407Z,8.04
2019-01-16T09:29:59.301Z,7.97
2019-01-16T09:31:07.188Z,8.00
2019-01-16T09:32:18.211Z,8.23
2019-01-16T09:33:39.570Z,8.77
2019-01-16T09:34:44.491Z,9.20
2019-01-16T09:35:55.137Z,9.70
2019-01-16T09:37:06.196Z,9.75
2019-01-16T09:38:23.049Z,9.77
2019-01-16T09:39:30.477Z,9.54
2019-01-16T09:40:35.399Z,9.01
2019-01-16T09:41:43.007Z,8.78
2019-01-16T09:42:53.683Z,8.54
2019-01-16T09:44:04.434Z,8.34
2019-01-16T09:45:26.758Z,8.00
2019-01-16T09:46:47.829Z,8.42
2019-01-16T09:47:52.750Z,9.03
2019-01-16T09:49:00.370Z,8.85
2019-01-16T09:50:06.675Z,8.99
2019-01-16T09:51:29.410Z,9.12
2019-01-16T09:52:34.400Z,9.04
2019-01-16T09:53:42.341Z,8.82
2019-01-16T09:55:05.624Z,8.77
2019-01-16T09:56:10.612Z,8.68
2019-01-16T09:57:28.317Z,8.63
2019-01-16T09:58:24.625Z,8.48
2019-01-16T09:59:38.082Z,8.22
2019-01-16T10:00:59.393Z,8.07
2019-01-16T10:02:04.759Z,7.87
2019-01-16T10:03:15.405Z,7.46
2019-01-16T10:04:20.453Z,7.72
2019-01-16T10:05:34.405Z,7.80
2019-01-16T10:06:51.193Z,7.58
2019-01-16T10:08:05.321Z,7.68
2019-01-16T10:09:16.388Z,7.49
2019-01-16T10:10:21.320Z,7.46
2019-01-16T10:11:29.131Z,7.50
2019-01-16T10:12:34.418Z,7.77
2019-01-16T10:13:55.608Z,8.29
2019-01-16T10:15:00.531Z,8.51
2019-01-16T10:16:05.470Z,8.63
2019-01-16T10:17:10.397Z,8.70
2019-01-16T10:18:15.329Z,8.88
2019-01-16T10:19:20.645Z,8.98
2019-01-16T10:20:25.573Z,8.63
2019-01-16T10:21:30.499Z,8.24
2019-01-16T10:22:41.449Z,8.34
2019-01-16T10:23:48.984Z,8.20
2019-01-16T10:24:59.698Z,8.09
2019-01-16T10:26:04.653Z,7.72
2019-01-16T10:27:15.201Z,7.57
2019-01-16T10:28:34.956Z,7.64
2019-01-16T10:29:43.671Z,7.72
2019-01-16T10:30:54.095Z,7.59
2019-01-16T10:32:17.051Z,7.26
2019-01-16T10:33:21.973Z,7.26
2019-01-16T10:34:26.921Z,7.43
2019-01-16T10:35:31.839Z,7.40
2019-01-16T10:36:36.820Z,7.54
2019-01-16T10:37:50.804Z,7.49
2019-01-16T10:39:04.666Z,7.25
2019-01-16T10:40:24.911Z,6.92
2019-01-16T10:41:30.206Z,6.72
2019-01-16T10:42:53.122Z,6.71
2019-01-16T10:44:16.302Z,6.72
2019-01-16T10:45:21.222Z,6.60
2019-01-16T10:46:41.410Z,6.76
2019-01-16T10:48:01.272Z,6.89
2019-01-16T10:49:06.285Z,7.14
2019-01-16T10:50:28.116Z,7.44
2019-01-16T10:51:38.956Z,7.70
2019-01-16T10:53:00.214Z,8.05
2019-01-16T10:54:07.996Z,8.51
2019-01-16T10:55:12.918Z,9.31
2019-01-16T10:56:17.904Z,9.88
2019-01-16T10:57:22.828Z,10.29
2019-01-16T10:58:27.749Z,10.71
2019-01-16T10:59:38.796Z,10.61
2019-01-16T11:00:52.347Z,10.80
2019-01-16T11:01:57.328Z,11.19
2019-01-16T11:03:04.825Z,11.27
2019-01-16T11:04:09.784Z,11.36
2019-01-16T11:05:14.760Z,11.50
2019-01-16T11:06:28.939Z,11.61
2019-01-16T11:07:33.882Z,11.56
2019-01-16T11:08:38.812Z,11.51
2019-01-16T11:09:49.885Z,11.43
2019-01-16T11:10:57.830Z,11.25
2019-01-16T11:12:03.194Z,11.48
2019-01-16T11:13:22.802Z,11.50
2019-01-16T11:14:36.729Z,11.73
2019-01-16T11:15:41.660Z,11.75
2019-01-16T11:16:56.691Z,11.37
2019-01-16T11:18:08.114Z,11.54
2019-01-16T11:19:29.228Z,11.70
2019-01-16T11:20:34.154Z,11.70
2019-01-16T11:21:39.085Z,11.54
2019-01-16T11:22:44.067Z,11.37
2019-01-16T11:24:05.538Z,11.57
2019-01-16T11:25:10.904Z,11.34
2019-01-16T11:26:31.898Z,12.21
2019-01-16T11:27:48.616Z,12.21
2019-01-16T11:29:09.483Z,12.82
2019-01-16T11:30:26.344Z,12.82
2019-01-16T11:31:31.365Z,12.27
2019-01-16T11:32:52.245Z,12.27
2019-01-16T11:34:00.629Z,12.11
2019-01-16T11:35:22.266Z,12.37
2019-01-16T11:36:43.361Z,12.90
2019-01-16T11:38:00.061Z,12.90
2019-01-16T11:39:23.330Z,12.50
2019-01-16T11:40:31.060Z,12.02
2019-01-16T11:41:41.697Z,11.91
2019-01-16T11:43:02.455Z,12.03
2019-01-16T11:44:23.678Z,12.13
2019-01-16T11:45:31.578Z,12.16
2019-01-16T11:46:48.451Z,12.76
2019-01-16T11:47:56.251Z,13.02
2019-01-16T11:49:19.353Z,12.78
2019-01-16T11:50:36.446Z,12.13
2019-01-16T11:51:47.547Z,12.13
2019-01-16T11:53:08.560Z,12.05
2019-01-16T11:54:28.448Z,11.41
2019-01-16T11:55:36.051Z,11.41
2019-01-16T11:56:40.992Z,11.51
2019-01-16T11:57:45.955Z,11.65
2019-01-16T11:58:59.720Z,11.77
2019-01-16T12:00:16.212Z,12.39
2019-01-16T12:01:37.547Z,12.39
2019-01-16T12:02:42.552Z,12.49
2019-01-16T12:04:03.948Z,12.49
2019-01-16T12:05:13.927Z,12.49
2019-01-16T12:06:34.978Z,12.46
2019-01-16T12:07:39.988Z,13.01
2019-01-16T12:09:00.014Z,13.28
2019-01-16T12:10:06.152Z,13.28
2019-01-16T12:11:14.006Z,13.42
2019-01-16T12:12:21.734Z,13.42
2019-01-16T12:13:29.504Z,13.93
2019-01-16T12:14:50.852Z,13.93
2019-01-16T12:16:13.817Z,14.04
2019-01-16T12:17:24.541Z,14.20
2019-01-16T12:18:32.437Z,14.49
2019-01-16T12:19:46.145Z,14.36
2019-01-16T12:20:53.806Z,14.41
2019-01-16T12:22:04.491Z,14.47
2019-01-16T12:23:12.252Z,14.49
2019-01-16T12:24:22.809Z,14.50
2019-01-16T12:25:33.579Z,14.73
2019-01-16T12:26:41.337Z,14.90
2019-01-16T12:27:55.370Z,14.79
2019-01-16T12:29:15.440Z,14.61
2019-01-16T12:30:38.406Z,14.42
2019-01-16T12:31:55.676Z,14.71
2019-01-16T12:33:06.630Z,14.64
2019-01-16T12:34:14.375Z,14.91
2019-01-16T12:35:24.718Z,14.86
2019-01-16T12:36:29.738Z,14.90
2019-01-16T12:37:40.235Z,14.96
2019-01-16T12:38:51.413Z,14.41
2019-01-16T12:39:59.254Z,14.63
2019-01-16T12:41:10.343Z,14.42
2019-01-16T12:42:21.002Z,14.31
2019-01-16T12:43:25.926Z,14.15
2019-01-16T12:44:33.833Z,14.17
2019-01-16T12:45:41.981Z,14.09
2019-01-16T12:47:02.829Z,13.93
2019-01-16T12:48:23.130Z,14.15
2019-01-16T12:49:40.427Z,14.27
2019-01-16T12:50:51.354Z,13.90
2019-01-16T12:51:56.374Z,13.85
2019-01-16T12:53:04.229Z,13.65
2019-01-16T12:54:12.159Z,13.43
2019-01-16T12:55:17.111Z,13.10
2019-01-16T12:56:22.070Z,13.31
2019-01-16T12:57:30.064Z,13.53
2019-01-16T12:58:44.041Z,13.28
2019-01-16T13:00:05.322Z,12.91
2019-01-16T13:01:10.297Z,13.03
2019-01-16T13:02:15.232Z,13.20
2019-01-16T13:03:36.513Z,13.18
2019-01-16T13:04:44.119Z,13.19
2019-01-16T13:05:59.208Z,13.35
2019-01-16T13:07:04.233Z,13.39
2019-01-16T13:08:09.541Z,13.49
2019-01-16T13:09:20.153Z,13.54
2019-01-16T13:10:43.126Z,13.43
2019-01-16T13:12:04.195Z,13.68
2019-01-16T13:13:09.108Z,13.68
2019-01-16T13:14:16.556Z,13.65
2019-01-16T13:15:21.481Z,13.37
2019-01-16T13:16:41.619Z,13.05
2019-01-16T13:18:04.416Z,12.99
2019-01-16T13:19:09.339Z,12.95
2019-01-16T13:20:23.263Z,12.67
2019-01-16T13:21:31.038Z,12.35
2019-01-16T13:22:35.985Z,12.21
2019-01-16T13:23:56.841Z,12.21
2019-01-16T13:25:07.630Z,12.28
2019-01-16T13:26:12.643Z,12.31
2019-01-16T13:27:17.587Z,12.31
2019-01-16T13:28:22.505Z,12.48
2019-01-16T13:29:43.736Z,12.17
2019-01-16T13:30:54.777Z,12.16
2019-01-16T13:31:59.747Z,12.11
2019-01-16T13:33:20.819Z,12.11
2019-01-16T13:34:25.816Z,12.16
2019-01-16T13:35:33.621Z,12.20
2019-01-16T13:36:50.436Z,12.20
2019-01-16T13:38:01.472Z,12.32
2019-01-16T13:39:25.364Z,12.18
2019-01-16T13:40:30.332Z,12.34
2019-01-16T13:41:37.862Z,12.41
2019-01-16T13:42:45.249Z,12.37
2019-01-16T13:44:05.354Z,12.28
2019-01-16T13:45:13.542Z,12.47
2019-01-16T13:46:18.470Z,12.47
2019-01-16T13:47:27.658Z,12.57
2019-01-16T13:48:52.754Z,12.58
2019-01-16T13:49:56.715Z,12.44
2019-01-16T13:51:03.220Z,12.32
2019-01-16T13:52:19.041Z,12.12
2019-01-16T13:53:37.764Z,12.12
2019-01-16T13:54:48.782Z,11.67
2019-01-16T13:55:53.750Z,11.67
2019-01-16T13:56:59.084Z,11.28
2019-01-16T13:58:06.747Z,11.15
2019-01-16T13:59:23.513Z,11.15
2019-01-16T14:00:34.208Z,11.18
2019-01-16T14:01:54.336Z,11.05
2019-01-16T14:03:10.268Z,11.04
2019-01-16T14:04:19.285Z,11.01
2019-01-16T14:05:27.009Z,10.78
2019-01-16T14:06:31.932Z,10.64
2019-01-16T14:07:39.516Z,10.64
2019-01-16T14:08:50.120Z,10.61
2019-01-16T14:10:13.920Z,10.51
2019-01-16T14:11:33.895Z,10.41
2019-01-16T14:12:50.830Z,10.17
2019-01-16T14:14:01.052Z,10.20
2019-01-16T14:15:15.059Z,10.20
2019-01-16T14:16:25.894Z,10.19
2019-01-16T14:17:44.434Z,10.36
2019-01-16T14:19:05.370Z,10.31
2019-01-16T14:20:13.568Z,10.31
2019-01-16T14:21:26.043Z,10.40
2019-01-16T14:22:33.970Z,10.21
2019-01-16T14:23:39.288Z,10.01
2019-01-16T14:24:47.467Z,9.85
2019-01-16T14:25:55.296Z,9.66
2019-01-16T14:27:12.313Z,9.45
2019-01-16T14:28:19.435Z,9.32
2019-01-16T14:29:30.307Z,9.22
2019-01-16T14:30:53.452Z,9.05
2019-01-16T14:32:01.073Z,8.69
2019-01-16T14:33:09.356Z,8.32
2019-01-16T14:34:14.232Z,8.18
2019-01-16T14:35:24.733Z,8.18
2019-01-16T14:36:38.525Z,8.11
2019-01-16T14:38:00.547Z,7.95
2019-01-16T14:39:25.622Z,7.78
2019-01-16T14:40:30.615Z,7.56
2019-01-16T14:41:50.756Z,7.26
2019-01-16T14:43:07.678Z,7.10
2019-01-16T14:44:12.607Z,6.93
2019-01-16T14:45:33.628Z,6.82
2019-01-16T14:46:38.549Z,6.69
2019-01-16T14:48:02.082Z,6.56
2019-01-16T14:49:07.838Z,6.35
2019-01-16T14:50:30.871Z,6.18
2019-01-16T14:51:37.430Z,6.01
2019-01-16T14:52:45.242Z,5.81
2019-01-16T14:53:56.301Z,5.77
2019-01-16T14:55:07.265Z,5.70
2019-01-16T14:56:12.189Z,5.57
2019-01-16T14:57:33.084Z,5.49
2019-01-16T14:58:53.230Z,5.42
2019-01-16T15:00:07.110Z,5.26
2019-01-16T15:01:18.274Z,5.30
2019-01-16T15:02:38.676Z,5.33
2019-01-16T15:03:43.602Z,5.31
2019-01-16T15:04:57.569Z,5.22
2019-01-16T15:06:04.999Z,5.23
2019-01-16T15:07:10.017Z,5.19
2019-01-16T15:08:15.029Z,5.10
2019-01-16T15:09:38.597Z,4.96
2019-01-16T15:10:43.584Z,4.91
2019-01-16T15:11:58.148Z,4.98
2019-01-16T15:13:08.629Z,4.83
2019-01-16T15:14:22.973Z,4.73
2019-01-16T15:15:43.885Z,4.66
2019-01-16T15:17:00.821Z,4.63
2019-01-16T15:18:08.769Z,4.56
2019-01-16T15:19:16.486Z,4.46
2019-01-16T15:20:21.423Z,4.43
2019-01-16T15:21:28.986Z,4.39
2019-01-16T15:22:37.250Z,4.33
2019-01-16T15:23:42.277Z,4.17
2019-01-16T15:24:53.056Z,4.09
2019-01-16T15:26:14.360Z,4.05
2019-01-16T15:27:22.221Z,3.95
2019-01-16T15:28:43.633Z,3.91
2019-01-16T15:29:48.676Z,3.88